Time;durP1;ratioP1;P1;durP2;ratioP2;P2;SDS_P1;SDS_P2;PMS_P1;PMS_P2;Temp;Humidity;BMP_temperature;BMP_pressure;BME280_temperature;BME280_humidity;BME280_pressure;Samples;Min_cycle;Max_cycle;Signal;HPM_P1;HPM_P2
2024/02/16 00:02:08;;;;;;;5.13;3.08;;;12.60;79.10;;;;;;4959003;28;34399;-78
2024/02/16 00:04:39;;;;;;;4.95;3.10;;;12.60;79.70;;;;;;4977585;28;39401;-80
2024/02/16 00:07:06;;;;;;;6.65;3.33;;;12.60;78.90;;;;;;4984857;28;39971;-81
2024/02/16 00:09:33;;;;;;;5.07;2.90;;;12.60;79.30;;;;;;4971661;28;38774;-80
2024/02/16 00:11:59;;;;;;;8.70;3.38;;;12.50;81.80;;;;;;4959969;28;36411;-81
2024/02/16 00:14:28;;;;;;;6.35;3.20;;;12.50;82.20;;;;;;4976621;28;37807;-80
2024/02/16 00:17:11;;;;;;;6.15;3.13;;;12.50;81.50;;;;;;4969436;28;38245;-79
2024/02/16 00:19:38;;;;;;;12.80;3.33;;;12.50;84.80;;;;;;4998574;28;50344;-81
2024/02/16 00:22:07;;;;;;;6.78;3.90;;;12.50;87.20;;;;;;4963053;28;38350;-80
2024/02/16 00:24:34;;;;;;;8.80;3.60;;;12.40;87.80;;;;;;4990273;28;39308;-80
2024/02/16 00:27:01;;;;;;;6.13;3.92;;;12.40;90.00;;;;;;4995928;28;38609;-80
2024/02/16 00:29:33;;;;;;;7.38;3.55;;;12.40;91.20;;;;;;4980393;28;49285;-80
2024/02/16 00:32:00;;;;;;;8.70;3.55;;;12.40;91.20;;;;;;4989401;28;36736;-79
2024/02/16 00:34:29;;;;;;;6.63;3.17;;;12.40;91.20;;;;;;4979650;28;39992;-80
2024/02/16 00:36:57;;;;;;;6.75;3.42;;;12.40;89.00;;;;;;4957860;28;37252;-80
2024/02/16 00:39:24;;;;;;;7.88;3.38;;;12.40;87.20;;;;;;4996908;28;38590;-79
2024/02/16 00:41:51;;;;;;;6.60;3.90;;;12.50;79.60;;;;;;4971816;28;37463;-79
2024/02/16 00:44:20;;;;;;;7.63;3.33;;;12.50;73.50;;;;;;4967048;28;38127;-81
2024/02/16 00:47:00;;;;;;;4.95;3.42;;;12.50;63.90;;;;;;4996373;28;39241;-81
2024/02/16 00:49:29;;;;;;;5.22;3.47;;;12.50;63.20;;;;;;4966576;28;37065;-81
2024/02/16 00:51:57;;;;;;;8.07;3.40;;;12.50;62.40;;;;;;4985428;28;37915;-80
2024/02/16 00:54:26;;;;;;;5.97;3.35;;;12.50;67.10;;;;;;5004355;28;39127;-79
2024/02/16 00:56:52;;;;;;;6.60;3.38;;;12.50;68.40;;;;;;4976876;28;37934;-79
2024/02/16 00:59:22;;;;;;;5.70;3.42;;;12.50;67.20;;;;;;4953667;28;38642;-80
2024/02/16 01:01:49;;;;;;;6.22;3.20;;;12.50;66.90;;;;;;4980922;28;36416;-79
2024/02/16 01:04:15;;;;;;;8.88;3.58;;;12.40;67.40;;;;;;4965552;28;37733;-79
2024/02/16 01:06:45;;;;;;;4.30;3.25;;;12.40;68.90;;;;;;4984938;28;38768;-79
2024/02/16 01:09:16;;;;;;;4.32;3.08;;;12.40;70.90;;;;;;4969403;28;37972;-80
2024/02/16 01:11:44;;;;;;;5.53;3.20;;;12.30;74.90;;;;;;4973743;28;38790;-81
2024/02/16 01:14:15;;;;;;;5.97;3.20;;;12.40;74.10;;;;;;4992590;28;42006;-80
2024/02/16 01:16:44;;;;;;;7.38;3.35;;;12.40;72.80;;;;;;4975599;28;38507;-81
2024/02/16 01:19:17;;;;;;;4.15;2.80;;;12.40;66.10;;;;;;4974603;28;37352;-81
2024/02/16 01:21:47;;;;;;;6.28;3.63;;;12.40;61.70;;;;;;4956716;28;37169;-80
2024/02/16 01:24:13;;;;;;;6.97;3.30;;;12.40;69.40;;;;;;5005719;28;39302;-79
2024/02/16 01:26:45;;;;;;;4.95;3.50;;;12.30;79.20;;;;;;4991732;28;38391;-79
2024/02/16 01:29:12;;;;;;;6.57;3.63;;;12.30;77.20;;;;;;4974106;28;39602;-79
2024/02/16 01:31:38;;;;;;;8.60;3.72;;;12.30;85.60;;;;;;4974789;28;38410;-81
2024/02/16 01:34:05;;;;;;;7.78;3.70;;;12.30;85.10;;;;;;4966769;28;37694;-79
2024/02/16 01:36:31;;;;;;;6.53;3.70;;;12.20;91.30;;;;;;4980463;28;38837;-81
2024/02/16 01:38:58;;;;;;;6.30;3.50;;;12.10;92.40;;;;;;4996640;28;40579;-80
2024/02/16 01:41:24;;;;;;;7.80;4.07;;;12.00;95.10;;;;;;4971503;28;36134;-80
2024/02/16 01:43:56;;;;;;;6.57;3.60;;;11.90;99.80;;;;;;4981450;28;39302;-79
2024/02/16 01:46:30;;;;;;;6.57;3.45;;;11.90;99.90;;;;;;4971101;28;39069;-80
2024/02/16 01:49:08;;;;;;;6.20;3.35;;;11.80;99.90;;;;;;4994164;28;38231;-81
2024/02/16 01:51:35;;;;;;;5.72;3.78;;;11.70;99.90;;;;;;4983083;28;47263;-80
2024/02/16 01:54:02;;;;;;;5.03;3.67;;;11.70;99.90;;;;;;4986420;28;37589;-79
2024/02/16 01:56:29;;;;;;;5.88;3.95;;;11.70;99.90;;;;;;4964006;28;48778;-80
2024/02/16 01:58:59;;;;;;;5.40;4.13;;;11.60;99.90;;;;;;4952663;28;37759;-80
2024/02/16 02:04:06;;;;;;;5.75;3.45;;;11.60;99.90;;;;;;5406560;23;20059;-80
2024/02/16 02:06:47;;;;;;;8.48;4.07;;;11.60;99.90;;;;;;4992753;28;50228;-80
2024/02/16 02:09:28;;;;;;;6.00;4.30;;;11.50;99.90;;;;;;4940857;28;38582;-79
2024/02/16 02:12:00;;;;;;;6.20;3.85;;;11.60;99.90;;;;;;4984351;28;38546;-81
2024/02/16 02:14:44;;;;;;;6.07;3.93;;;11.60;99.90;;;;;;4950022;28;38266;-81
2024/02/16 02:17:13;;;;;;;7.63;4.13;;;11.60;99.90;;;;;;4965439;28;38915;-80
2024/02/16 02:19:50;;;;;;;6.43;3.90;;;11.60;99.90;;;;;;4975662;28;38408;-80
2024/02/16 02:22:27;;;;;;;7.93;4.00;;;11.60;99.90;;;;;;4935790;28;38766;-81
2024/02/16 02:25:31;;;;;;;9.30;3.63;;;11.60;99.90;;;;;;4930952;28;40093;-80
2024/02/16 02:28:08;;;;;;;6.13;3.92;;;11.60;99.90;;;;;;4904999;28;49277;-81
2024/02/16 02:30:59;;;;;;;5.82;3.67;;;11.60;99.90;;;;;;4930748;28;49617;-80
2024/02/16 02:33:39;;;;;;;;;;;11.60;99.90;;;;;;4905596;28;38407;-80
2024/02/16 02:36:50;;;;;;;5.55;3.20;;;11.70;99.90;;;;;;4935827;28;39600;-80
2024/02/16 02:39:17;;;;;;;7.90;4.10;;;11.60;99.90;;;;;;4936283;28;37629;-82
2024/02/16 02:41:47;;;;;;;7.15;4.00;;;11.60;99.90;;;;;;4930776;28;40533;-80
2024/02/16 02:44:35;;;;;;;8.07;4.00;;;11.60;99.90;;;;;;4942025;28;37138;-81
2024/02/16 02:47:12;;;;;;;5.50;3.37;;;11.60;99.90;;;;;;4924770;28;39501;-80
2024/02/16 02:50:11;;;;;;;5.20;3.60;;;11.60;99.90;;;;;;4906391;28;49026;-80
2024/02/16 02:52:45;;;;;;;4.50;3.63;;;11.60;99.90;;;;;;4929581;28;51979;-81
2024/02/16 02:55:25;;;;;;;6.67;3.97;;;11.60;99.90;;;;;;4924309;28;36844;-81
2024/02/16 02:57:52;;;;;;;5.80;3.35;;;11.60;99.90;;;;;;4935628;28;39364;-80
2024/02/16 03:00:27;;;;;;;6.13;3.33;;;11.60;99.90;;;;;;4928612;28;39906;-80
2024/02/16 03:03:04;;;;;;;6.43;3.53;;;11.60;99.90;;;;;;4915782;28;50045;-80
2024/02/16 03:06:27;;;;;;;4.93;3.40;;;11.60;99.90;;;;;;4901175;29;49870;-82
2024/02/16 03:09:49;;;;;;;9.05;3.47;;;11.60;99.90;;;;;;4915823;28;50451;-80
2024/02/16 03:12:23;;;;;;;7.97;3.67;;;11.60;99.90;;;;;;4924380;28;49969;-81
2024/02/16 03:15:04;;;;;;;7.15;3.70;;;11.60;99.90;;;;;;4998124;28;39358;-81
2024/02/16 03:17:37;;;;;;;6.53;3.90;;;11.60;99.90;;;;;;4968967;28;48980;-80
2024/02/16 03:20:22;;;;;;;5.65;3.15;;;11.60;99.90;;;;;;4961473;28;38847;-81
2024/02/16 03:23:30;;;;;;;4.40;3.35;;;11.60;99.90;;;;;;4962441;28;49556;-80
2024/02/16 03:26:24;;;;;;;5.63;3.58;;;11.60;99.90;;;;;;4963585;28;38906;-81
2024/02/16 03:28:57;;;;;;;6.10;3.43;;;11.50;99.90;;;;;;4938829;28;48186;-82
2024/02/16 03:31:33;;;;;;;7.50;3.83;;;11.40;99.90;;;;;;4961539;28;40004;-80
2024/02/16 03:34:28;;;;;;;5.30;3.42;;;11.50;99.90;;;;;;4964305;28;39762;-81
2024/02/16 03:36:58;;;;;;;9.43;3.77;;;11.50;99.90;;;;;;4971064;28;39547;-82
2024/02/16 03:39:47;;;;;;;5.93;4.10;;;11.40;99.90;;;;;;4955592;28;37572;-81
2024/02/16 03:42:55;;;;;;;9.02;3.90;;;11.40;99.90;;;;;;4944271;28;40398;-80
2024/02/16 03:45:29;;;;;;;8.20;3.83;;;11.40;99.90;;;;;;4968302;28;39012;-80
2024/02/16 03:48:07;;;;;;;4.60;3.50;;;11.40;99.90;;;;;;4960565;28;38761;-80
2024/02/16 03:50:54;;;;;;;7.90;3.83;;;11.40;99.90;;;;;;4962618;28;50245;-81
2024/02/16 03:53:33;;;;;;;8.57;4.15;;;11.40;99.90;;;;;;4957567;28;39070;-81
2024/02/16 03:56:22;;;;;;;7.47;4.10;;;11.40;99.90;;;;;;4952449;28;39431;-81
2024/02/16 03:58:58;;;;;;;8.50;4.30;;;11.40;99.90;;;;;;4940904;28;38039;-81
2024/02/16 04:01:32;;;;;;;6.17;3.60;;;11.40;99.90;;;;;;4922121;28;38665;-81
2024/02/16 04:04:15;;;;;;;7.73;3.63;;;11.50;99.90;;;;;;5015430;23;40124;-80
2024/02/16 04:06:55;;;;;;;8.32;3.72;;;11.50;99.90;;;;;;4936886;28;47807;-79
2024/02/16 04:09:50;;;;;;;6.30;4.07;;;11.50;99.90;;;;;;4923605;28;37821;-80
2024/02/16 04:12:42;;;;;;;7.63;4.30;;;11.60;99.90;;;;;;4963420;28;38990;-80
2024/02/16 04:17:56;;;;;;;6.37;3.70;;;11.70;99.90;;;;;;5019127;23;20040;-81
2024/02/16 04:20:44;;;;;;;5.85;4.03;;;11.70;99.40;;;;;;4897038;29;37236;-80
2024/02/16 04:23:38;;;;;;;7.73;4.10;;;11.70;98.20;;;;;;4906055;28;49091;-82
2024/02/16 04:26:12;;;;;;;8.33;3.43;;;11.70;97.90;;;;;;4908288;28;40398;-82
2024/02/16 04:29:04;;;;;;;6.37;3.87;;;11.80;96.40;;;;;;4922832;28;38854;-81
2024/02/16 04:32:03;;;;;;;11.90;4.03;;;11.70;97.20;;;;;;4897625;29;49013;-80
2024/02/16 04:34:57;;;;;;;9.87;3.87;;;11.70;98.60;;;;;;4907782;29;50386;-81
2024/02/16 04:37:43;;;;;;;6.60;3.78;;;11.70;97.70;;;;;;4895105;29;38138;-80
2024/02/16 04:40:36;;;;;;;6.20;3.43;;;11.80;96.90;;;;;;4926051;28;39628;-81
2024/02/16 04:43:11;;;;;;;8.50;3.72;;;11.80;96.80;;;;;;4895383;29;42474;-80
2024/02/16 04:46:02;;;;;;;5.30;3.57;;;11.80;96.90;;;;;;4924689;28;37214;-80
2024/02/16 04:48:56;;;;;;;6.90;3.80;;;11.90;95.30;;;;;;4907190;28;48390;-82
2024/02/16 04:51:40;;;;;;;7.55;4.18;;;11.90;94.00;;;;;;4917234;28;39785;-82
2024/02/16 04:54:23;;;;;;;9.27;3.70;;;11.90;94.70;;;;;;4904972;28;39692;-80
2024/02/16 04:57:07;;;;;;;8.65;4.18;;;11.90;95.70;;;;;;4934920;28;38497;-81
2024/02/16 04:59:46;;;;;;;8.70;3.97;;;11.90;97.20;;;;;;4907070;28;47890;-82
2024/02/16 05:02:25;;;;;;;9.37;4.77;;;12.00;96.40;;;;;;4915266;28;38432;-82
2024/02/16 05:05:15;;;;;;;10.55;4.28;;;12.10;95.70;;;;;;4948660;28;38996;-81
2024/02/16 05:08:05;;;;;;;7.32;4.93;;;12.10;95.90;;;;;;4922599;28;49167;-81
2024/02/16 05:11:07;;;;;;;8.60;4.18;;;12.10;96.00;;;;;;4942254;28;49280;-82
2024/02/16 05:14:03;;;;;;;7.18;4.53;;;12.20;95.90;;;;;;4951992;28;50301;-81
2024/02/16 05:17:03;;;;;;;7.50;4.47;;;12.20;96.30;;;;;;4955602;28;37240;-81
2024/02/16 05:19:58;;;;;;;6.63;4.22;;;12.20;96.10;;;;;;4923565;28;49813;-81
2024/02/16 05:22:49;;;;;;;5.07;3.63;;;12.20;97.50;;;;;;4905185;29;38822;-82
2024/02/16 05:25:38;;;;;;;7.00;4.07;;;12.20;97.60;;;;;;4814781;28;4646009;-82
2024/02/16 05:28:32;;;;;;;7.90;4.60;;;12.20;98.60;;;;;;4957194;28;39016;-80
2024/02/16 05:31:32;;;;;;;6.57;4.03;;;12.20;99.90;;;;;;4951046;28;37345;-81
2024/02/16 05:34:37;;;;;;;7.10;4.18;;;12.20;99.90;;;;;;4907734;28;48609;-81
2024/02/16 05:37:20;;;;;;;8.63;4.85;;;12.20;99.90;;;;;;4969278;28;39706;-81
2024/02/16 05:40:18;;;;;;;7.53;4.57;;;12.20;99.90;;;;;;4943644;28;39989;-81
2024/02/16 05:43:18;;;;;;;6.65;4.18;;;12.20;99.90;;;;;;4982702;23;20044;-82
2024/02/16 05:45:58;;;;;;;11.10;5.15;;;12.20;99.90;;;;;;4906486;29;48864;-82
2024/02/16 05:48:43;;;;;;;9.48;4.22;;;12.20;99.90;;;;;;4891147;29;38723;-82
2024/02/16 05:51:40;;;;;;;6.63;4.53;;;12.20;99.90;;;;;;4905638;29;39019;-81
2024/02/16 05:54:35;;;;;;;9.05;4.63;;;12.20;99.90;;;;;;4884757;29;37610;-81
2024/02/16 05:57:18;;;;;;;8.45;4.68;;;12.20;99.90;;;;;;4876530;29;40226;-81
2024/02/16 06:00:10;;;;;;;9.82;4.65;;;12.30;99.90;;;;;;4892647;29;47642;-82
2024/02/16 06:03:14;;;;;;;;;;;;;;;;;;;;;
2024/02/16 06:06:08;;;;;;;8.90;5.20;;;12.30;99.90;;;;;;4872793;29;50021;-81
2024/02/16 06:09:11;;;;;;;10.90;4.75;;;12.30;99.90;;;;;;4886254;29;49117;-81
2024/02/16 06:12:15;;;;;;;8.13;5.15;;;12.40;99.90;;;;;;4869755;29;49120;-81
2024/02/16 06:14:57;;;;;;;8.32;4.55;;;12.40;99.90;;;;;;4866544;29;49451;-81
2024/02/16 06:17:43;;;;;;;9.52;4.63;;;12.40;99.90;;;;;;4883958;29;37464;-80
2024/02/16 06:20:18;;;;;;;10.30;4.80;;;12.40;99.90;;;;;;4885075;29;39616;-82
2024/02/16 06:22:57;;;;;;;6.15;4.38;;;12.40;99.90;;;;;;4894473;29;37638;-81
2024/02/16 06:25:57;;;;;;;9.00;4.72;;;12.40;99.90;;;;;;4905677;29;49132;-81
2024/02/16 06:28:42;;;;;;;9.52;4.05;;;12.40;99.90;;;;;;4911041;28;38655;-81
2024/02/16 06:31:25;;;;;;;7.38;4.70;;;12.50;99.90;;;;;;4920044;29;39333;-80
2024/02/16 06:34:13;;;;;;;7.80;4.78;;;12.50;99.90;;;;;;4919764;29;49419;-83
2024/02/16 06:36:44;;;;;;;9.73;4.78;;;12.50;99.90;;;;;;4948365;28;38611;-80
2024/02/16 06:39:30;;;;;;;8.32;4.80;;;12.50;99.90;;;;;;4936879;28;39603;-82
2024/02/16 06:42:03;;;;;;;7.80;4.90;;;12.50;99.90;;;;;;4931231;28;40161;-81
2024/02/16 06:44:59;;;;;;;8.38;4.68;;;12.50;99.90;;;;;;4836072;28;40252;-81
2024/02/16 06:47:32;;;;;;;8.57;4.30;;;12.50;99.90;;;;;;5067761;23;39613;-82
2024/02/16 06:50:06;;;;;;;8.00;4.35;;;12.50;99.90;;;;;;4953561;28;38393;-83
2024/02/16 06:53:17;;;;;;;8.85;4.70;;;12.60;99.90;;;;;;4917058;28;40086;-82
2024/02/16 06:56:27;;;;;;;10.32;4.68;;;12.50;99.90;;;;;;4925223;29;50006;-80
2024/02/16 06:59:09;;;;;;;8.27;4.70;;;12.50;99.90;;;;;;5426265;23;50049;-83
2024/02/16 07:01:56;;;;;;;8.80;5.35;;;12.50;99.90;;;;;;4927248;28;49261;-81
2024/02/16 07:05:34;;;;;;;;;;;;;;;;;;;;;
2024/02/16 07:08:27;;;;;;;7.22;4.95;;;12.50;99.90;;;;;;4945814;23;49403;-83
2024/02/16 07:11:21;;;;;;;7.63;4.25;;;12.50;99.90;;;;;;4940390;28;49974;-83
2024/02/16 07:14:14;;;;;;;9.40;5.10;;;12.50;99.90;;;;;;4924933;28;50113;-81
2024/02/16 07:19:36;;;;;;;7.22;4.57;;;12.60;99.90;;;;;;4757533;26;20047;-83
2024/02/16 07:22:46;;;;;;;9.88;4.57;;;12.60;99.90;;;;;;4962442;28;39370;-82
2024/02/16 07:25:26;;;;;;;6.65;4.40;;;12.60;99.90;;;;;;4893808;29;38699;-82
2024/02/16 07:28:04;;;;;;;8.27;4.82;;;12.50;99.90;;;;;;4909142;29;40048;-82
2024/02/16 07:30:45;;;;;;;7.15;4.25;;;12.50;99.90;;;;;;4883865;29;49073;-82
2024/02/16 07:33:19;;;;;;;8.40;4.85;;;12.60;99.90;;;;;;4876240;29;38562;-82
2024/02/16 07:36:29;;;;;;;7.82;4.97;;;12.60;99.90;;;;;;4933826;28;37913;-80
2024/02/16 07:39:25;;;;;;;7.18;4.90;;;12.60;99.90;;;;;;4960373;28;40073;-80
2024/02/16 07:45:13;;;;;;;8.05;5.32;;;12.70;99.90;;;;;;5165950;23;20079;-81
2024/02/16 07:47:58;;;;;;;8.43;4.80;;;12.80;99.90;;;;;;4943248;28;49098;-80
2024/02/16 07:51:07;;;;;;;;;;;;;;;;;;;;;
2024/02/16 07:53:56;;;;;;;11.13;5.32;;;12.90;99.90;;;;;;4962872;28;41548;-82
2024/02/16 07:56:41;;;;;;;7.18;4.30;;;12.90;99.90;;;;;;4949925;28;38565;-80
2024/02/16 08:02:44;;;;;;;8.27;4.53;;;13.00;99.90;;;;;;5353979;23;20044;-81
2024/02/16 08:05:59;;;;;;;8.23;4.90;;;13.00;99.90;;;;;;4849606;29;50315;-80
2024/02/16 08:09:30;;;;;;;6.32;4.45;;;13.10;99.90;;;;;;5193821;23;38997;-80
2024/02/16 08:12:48;;;;;;;7.57;4.20;;;13.10;99.90;;;;;;4940996;28;49712;-83
2024/02/16 08:15:47;;;;;;;9.00;4.88;;;13.10;99.90;;;;;;5476785;23;49288;-83
2024/02/16 08:26:48;;;;;;;7.63;4.63;;;13.20;99.90;;;;;;5002545;23;20258;-81
2024/02/16 08:30:11;;;;;;;6.78;4.50;;;13.30;99.90;;;;;;4969957;28;39492;-82
2024/02/16 08:32:49;;;;;;;8.52;4.38;;;13.20;99.90;;;;;;4895984;28;49024;-84
2024/02/16 08:35:50;;;;;;;8.02;4.38;;;13.10;99.90;;;;;;4857855;29;38545;-81
2024/02/16 08:39:16;;;;;;;8.43;4.45;;;13.20;99.90;;;;;;4887776;28;39682;-81
2024/02/16 08:44:49;;;;;;;7.55;4.43;;;13.30;99.90;;;;;;4551282;23;20052;-83
2024/02/16 08:48:13;;;;;;;7.95;4.32;;;13.40;99.90;;;;;;4952094;28;38113;-81
2024/02/16 08:51:06;;;;;;;11.27;5.97;;;13.50;99.90;;;;;;4943042;28;49908;-81
2024/02/16 09:36:27;;;;;;;14.73;8.02;;;12.80;99.90;;;;;;6110121;23;20028;31
2024/02/16 09:39:14;;;;;;;14.93;8.60;;;12.70;99.90;;;;;;4907158;29;49669;-81
2024/02/16 09:42:04;;;;;;;14.88;9.27;;;12.70;99.90;;;;;;4932051;29;39006;-81
2024/02/16 09:44:37;;;;;;;15.02;9.52;;;12.60;99.90;;;;;;4921830;29;48541;-80
2024/02/16 09:47:06;;;;;;;17.30;9.55;;;12.50;99.90;;;;;;4917571;29;39692;-80
2024/02/16 09:49:36;;;;;;;20.73;10.32;;;12.40;99.90;;;;;;4934468;29;38900;-80
2024/02/16 09:52:04;;;;;;;20.00;11.55;;;12.30;99.90;;;;;;4916952;29;39745;-81
2024/02/16 09:54:36;;;;;;;24.65;12.02;;;12.30;99.90;;;;;;4919892;29;39538;-80
2024/02/16 09:57:04;;;;;;;22.13;12.30;;;12.30;99.90;;;;;;4932282;28;39231;-80
2024/02/16 09:59:32;;;;;;;26.73;12.45;;;12.30;99.90;;;;;;4932651;28;41905;-81
2024/02/16 10:02:21;;;;;;;25.48;12.40;;;12.20;99.90;;;;;;4915614;29;38461;-80
2024/02/16 10:04:50;;;;;;;23.50;12.88;;;12.10;99.90;;;;;;4897925;29;38005;-81
2024/02/16 10:07:16;;;;;;;23.02;12.77;;;12.10;99.90;;;;;;4918813;29;38668;-78
2024/02/16 10:09:43;;;;;;;23.10;12.48;;;12.10;99.90;;;;;;4901400;29;38764;-79
2024/02/16 10:12:09;;;;;;;25.52;13.93;;;12.00;99.90;;;;;;4914087;29;37213;-79
2024/02/16 10:14:35;;;;;;;22.55;13.80;;;12.00;99.90;;;;;;4904601;29;37801;-79
2024/02/16 10:17:04;;;;;;;27.98;13.88;;;12.00;99.90;;;;;;4908383;29;39130;-79
2024/02/16 10:19:42;;;;;;;23.00;13.13;;;11.90;99.90;;;;;;4923433;29;47369;-80
2024/02/16 10:22:11;;;;;;;24.58;14.00;;;11.90;99.90;;;;;;4919250;29;37464;-80
2024/02/16 10:24:38;;;;;;;22.63;13.55;;;11.90;99.90;;;;;;4920313;29;36752;-80
2024/02/16 10:27:06;;;;;;;24.13;14.10;;;11.90;99.90;;;;;;4924739;29;39582;-80
2024/02/16 10:29:36;;;;;;;26.77;13.80;;;11.90;99.90;;;;;;4908091;29;36852;-79
2024/02/16 10:32:02;;;;;;;20.15;12.45;;;11.90;99.90;;;;;;4928298;29;38557;-79
2024/02/16 10:34:30;;;;;;;24.80;14.02;;;11.90;99.90;;;;;;4922048;29;36047;-81
2024/02/16 10:36:58;;;;;;;24.25;12.90;;;11.90;99.90;;;;;;4913991;29;37800;-81
2024/02/16 10:39:25;;;;;;;27.88;13.77;;;11.90;99.90;;;;;;4925117;29;37902;-79
2024/02/16 10:41:51;;;;;;;21.70;13.82;;;11.90;99.90;;;;;;4917882;29;38199;-79
2024/02/16 10:44:19;;;;;;;20.55;12.95;;;11.90;99.90;;;;;;4922903;29;36261;-79
2024/02/16 10:46:45;;;;;;;21.05;13.07;;;11.80;99.90;;;;;;4921685;29;37972;-80
2024/02/16 10:49:11;;;;;;;26.45;12.98;;;11.90;99.90;;;;;;4908022;29;37311;-80
2024/02/16 10:51:46;;;;;;;24.08;11.70;;;11.90;99.90;;;;;;4927164;29;37378;-79
2024/02/16 10:54:17;;;;;;;20.23;13.07;;;11.90;99.90;;;;;;4923999;29;37977;-79
2024/02/16 10:56:43;;;;;;;22.02;14.27;;;11.90;99.90;;;;;;4920525;29;39320;-80
2024/02/16 10:59:10;;;;;;;23.10;14.13;;;11.90;99.90;;;;;;4910825;29;37944;-80
2024/02/16 11:01:42;;;;;;;26.60;15.23;;;11.90;99.90;;;;;;4904761;29;37436;-80
2024/02/16 11:04:16;;;;;;;27.25;15.52;;;11.90;99.90;;;;;;4919851;28;36383;-80
2024/02/16 11:06:52;;;;;;;23.13;14.65;;;11.90;99.90;;;;;;4917748;29;38946;-80
2024/02/16 11:09:35;;;;;;;21.20;13.88;;;11.80;99.90;;;;;;4912230;29;38843;-79
2024/02/16 11:12:03;;;;;;;22.58;12.27;;;11.90;99.90;;;;;;4923712;29;38552;-80
2024/02/16 11:14:43;;;;;;;24.50;14.45;;;11.90;99.90;;;;;;4916709;29;36790;-79
2024/02/16 11:17:21;;;;;;;18.63;11.73;;;11.80;99.90;;;;;;4917815;29;39683;-79
2024/02/16 11:19:48;;;;;;;22.75;14.55;;;11.80;99.90;;;;;;4915594;29;37361;-80
2024/02/16 11:22:20;;;;;;;21.55;13.10;;;11.80;99.90;;;;;;4929802;28;39309;-80
2024/02/16 11:24:48;;;;;;;16.65;12.57;;;11.90;99.90;;;;;;4916211;29;36558;-79
2024/02/16 11:27:18;;;;;;;17.42;11.65;;;11.90;99.90;;;;;;4927112;29;37954;-80
2024/02/16 11:29:46;;;;;;;17.92;10.43;;;11.90;99.90;;;;;;4922282;29;38606;-79
2024/02/16 11:32:12;;;;;;;14.30;10.85;;;11.90;99.90;;;;;;4925030;29;38846;-80
2024/02/16 11:34:38;;;;;;;17.48;12.15;;;11.90;99.90;;;;;;4924825;29;36873;-80
2024/02/16 11:37:05;;;;;;;14.32;10.13;;;11.90;99.90;;;;;;4911317;29;39045;-81
2024/02/16 11:39:37;;;;;;;14.82;10.10;;;12.10;99.90;;;;;;4930788;29;38959;-80
2024/02/16 11:42:04;;;;;;;11.63;8.65;;;12.20;99.90;;;;;;4918243;29;37839;-80
2024/02/16 11:44:32;;;;;;;10.23;7.38;;;12.30;99.90;;;;;;4935263;28;37800;-80
2024/02/16 11:46:59;;;;;;;13.75;8.70;;;12.40;99.90;;;;;;4927654;29;38255;-81
2024/02/16 11:49:26;;;;;;;11.38;8.20;;;12.40;99.90;;;;;;4930999;29;41275;-81
2024/02/16 11:51:53;;;;;;;11.13;7.95;;;12.40;99.90;;;;;;4934671;28;37565;-80
2024/02/16 11:54:20;;;;;;;10.30;7.45;;;12.50;99.90;;;;;;4922170;29;36296;-80
2024/02/16 11:56:47;;;;;;;10.50;8.27;;;12.50;99.90;;;;;;4916903;29;37761;-83
2024/02/16 11:59:15;;;;;;;11.57;7.72;;;12.60;99.90;;;;;;4929888;29;37853;-82
2024/02/16 12:01:53;;;;;;;11.18;7.10;;;12.70;99.90;;;;;;4940991;29;37186;-81
2024/02/16 12:04:23;;;;;;;12.48;6.97;;;12.80;99.90;;;;;;4933362;28;36582;-81
2024/02/16 12:06:57;;;;;;;9.82;6.80;;;13.00;99.90;;;;;;4923790;29;39419;-81
2024/02/16 12:09:26;;;;;;;11.93;6.45;;;13.00;99.90;;;;;;4937217;29;37842;-81
2024/02/16 12:11:55;;;;;;;8.23;5.70;;;13.10;99.90;;;;;;4934665;29;38691;-81
2024/02/16 12:14:30;;;;;;;9.75;5.40;;;13.20;99.90;;;;;;4938314;29;36523;-80
2024/02/16 12:16:58;;;;;;;5.40;4.47;;;13.10;99.90;;;;;;4931321;28;38148;-81
2024/02/16 12:19:25;;;;;;;8.32;4.82;;;13.20;99.90;;;;;;4919333;28;37539;-82
2024/02/16 12:21:54;;;;;;;7.80;4.80;;;13.10;99.90;;;;;;4928216;29;38534;-82
2024/02/16 12:24:26;;;;;;;7.97;4.72;;;13.10;99.90;;;;;;4912467;29;36097;-82
2024/02/16 12:26:54;;;;;;;14.43;7.60;;;13.10;99.90;;;;;;4916029;29;38942;-82
2024/02/16 12:29:21;;;;;;;13.32;8.18;;;13.00;99.90;;;;;;4920708;29;38284;-83
2024/02/16 12:31:49;;;;;;;15.38;7.85;;;13.00;99.90;;;;;;4905933;29;37197;-82
2024/02/16 12:34:16;;;;;;;10.20;6.43;;;13.00;99.90;;;;;;4918723;29;36297;-80
2024/02/16 12:36:45;;;;;;;8.10;5.80;;;13.00;99.90;;;;;;4927282;29;38917;-82
2024/02/16 12:39:22;;;;;;;8.35;5.55;;;13.10;99.90;;;;;;4929609;29;38252;-82
2024/02/16 12:42:13;;;;;;;9.27;5.63;;;13.00;99.90;;;;;;4933393;29;38587;-82
2024/02/16 12:44:50;;;;;;;12.52;6.03;;;12.90;99.90;;;;;;4926231;29;48106;-82
2024/02/16 12:47:18;;;;;;;9.98;5.57;;;12.90;99.90;;;;;;4913113;29;38255;-81
2024/02/16 12:49:44;;;;;;;10.27;5.97;;;12.90;99.90;;;;;;4914766;29;37565;-81
2024/02/16 12:52:22;;;;;;;7.15;5.05;;;12.90;99.90;;;;;;4931140;29;36942;-83
2024/02/16 12:54:48;;;;;;;8.40;5.70;;;12.90;99.90;;;;;;4947631;28;37995;-82
2024/02/16 12:57:15;;;;;;;7.15;5.05;;;12.90;99.90;;;;;;4935877;29;37937;-81
2024/02/16 12:59:41;;;;;;;6.85;5.10;;;12.90;99.90;;;;;;4928876;29;38603;-81
2024/02/16 13:02:07;;;;;;;5.63;4.78;;;12.90;99.90;;;;;;4918745;29;38251;-81
2024/02/16 13:04:33;;;;;;;7.05;4.63;;;12.90;99.90;;;;;;4933403;29;37437;-81
2024/02/16 13:06:59;;;;;;;7.82;5.00;;;12.90;99.90;;;;;;4937093;29;38724;-81
2024/02/16 13:09:25;;;;;;;6.25;4.50;;;12.90;99.90;;;;;;4934817;29;38375;-79
2024/02/16 13:11:55;;;;;;;12.00;5.25;;;12.90;99.90;;;;;;4937224;28;38580;-80
2024/02/16 13:14:21;;;;;;;7.20;4.68;;;12.90;99.90;;;;;;4936883;29;37379;-81
2024/02/16 13:16:47;;;;;;;8.20;4.95;;;12.90;99.90;;;;;;4939430;29;38967;-79
2024/02/16 13:19:17;;;;;;;8.05;4.53;;;12.90;99.90;;;;;;4930580;28;39623;-80
2024/02/16 13:21:44;;;;;;;7.55;4.22;;;12.90;99.90;;;;;;4932725;29;37540;-83
2024/02/16 13:24:10;;;;;;;7.40;4.53;;;13.00;99.90;;;;;;4935451;29;37406;-81
2024/02/16 13:26:36;;;;;;;6.95;4.45;;;12.90;99.90;;;;;;4914248;29;38242;-77
2024/02/16 13:29:03;;;;;;;7.63;4.78;;;12.90;99.90;;;;;;4903213;29;38674;-76
2024/02/16 13:31:29;;;;;;;8.95;4.80;;;13.00;99.90;;;;;;4905589;29;38291;-76
2024/02/16 13:33:56;;;;;;;9.13;4.30;;;13.10;99.90;;;;;;4917541;29;37525;-78
2024/02/16 13:36:22;;;;;;;7.50;4.78;;;13.10;99.90;;;;;;4915459;29;37695;-78
2024/02/16 13:38:48;;;;;;;8.57;5.75;;;13.10;99.90;;;;;;4902732;29;38855;-77
2024/02/16 13:41:14;;;;;;;9.45;5.15;;;13.10;99.90;;;;;;4899188;29;38487;-77
2024/02/16 13:43:40;;;;;;;9.88;5.22;;;13.20;99.90;;;;;;4913362;28;37316;-77
2024/02/16 13:46:06;;;;;;;8.98;6.40;;;13.30;99.90;;;;;;4913731;29;38957;-77
2024/02/16 13:48:32;;;;;;;8.63;6.00;;;13.30;99.90;;;;;;4900243;29;39669;-77
2024/02/16 13:50:59;;;;;;;10.05;6.63;;;13.40;99.90;;;;;;4896401;29;36678;-77
2024/02/16 13:53:26;;;;;;;11.63;6.70;;;13.50;99.90;;;;;;4917546;29;37673;-79
2024/02/16 13:55:52;;;;;;;11.73;6.40;;;13.50;99.90;;;;;;4897037;29;39781;-78
2024/02/16 13:58:18;;;;;;;9.00;6.35;;;13.50;99.90;;;;;;4911549;29;39507;-78
2024/02/16 14:00:44;;;;;;;9.43;5.95;;;13.50;99.90;;;;;;4902576;29;38393;-78
2024/02/16 14:03:13;;;;;;;9.70;5.97;;;13.50;99.90;;;;;;4910844;29;35876;-77
2024/02/16 14:05:41;;;;;;;11.15;5.28;;;13.40;99.90;;;;;;4915571;29;37885;-78
2024/02/16 14:08:09;;;;;;;8.27;5.28;;;13.40;99.90;;;;;;4919816;28;38222;-78
2024/02/16 14:10:35;;;;;;;14.07;5.50;;;13.40;99.90;;;;;;4919023;29;38099;-78
2024/02/16 14:13:02;;;;;;;6.88;4.70;;;13.40;99.90;;;;;;4911290;29;37960;-78
2024/02/16 14:15:28;;;;;;;8.05;4.82;;;13.40;99.90;;;;;;4914578;29;40220;-78
2024/02/16 14:17:54;;;;;;;9.85;4.68;;;13.50;99.90;;;;;;4901969;29;36891;-78
2024/02/16 14:20:21;;;;;;;10.27;4.55;;;13.50;99.90;;;;;;4907888;29;40028;-79
2024/02/16 14:22:49;;;;;;;6.72;4.65;;;13.60;99.90;;;;;;4905766;29;37878;-79
2024/02/16 14:25:15;;;;;;;7.40;4.45;;;13.60;99.90;;;;;;4920753;28;38794;-79
2024/02/16 14:27:43;;;;;;;8.25;4.00;;;13.60;99.90;;;;;;4919898;29;38692;-78
2024/02/16 14:30:13;;;;;;;8.40;4.47;;;13.60;99.90;;;;;;4896017;28;37834;-79
2024/02/16 14:32:41;;;;;;;8.98;4.55;;;13.70;99.90;;;;;;4903177;29;37985;-79
2024/02/16 14:35:07;;;;;;;6.05;4.07;;;13.60;99.90;;;;;;4910474;29;37642;-79
2024/02/16 14:37:33;;;;;;;7.40;4.43;;;13.60;99.90;;;;;;4911813;29;38189;-79
2024/02/16 14:40:00;;;;;;;8.15;3.63;;;13.60;99.90;;;;;;4913809;29;38507;-77
2024/02/16 14:42:28;;;;;;;6.60;3.80;;;13.50;99.90;;;;;;4894365;29;37419;-78
2024/02/16 14:44:54;;;;;;;9.95;4.45;;;13.40;99.90;;;;;;4910097;29;38069;-77
2024/02/16 14:47:22;;;;;;;9.98;4.65;;;13.30;99.90;;;;;;4892743;29;37257;-77
2024/02/16 14:49:48;;;;;;;6.47;3.80;;;13.10;99.90;;;;;;4911369;29;37193;-78